Time;durP1;ratioP1;P1;durP2;ratioP2;P2;SDS_P1;SDS_P2;PMS_P1;PMS_P2;Temp;Humidity;BMP_temperature;BMP_pressure;BME280_temperature;BME280_humidity;BME280_pressure;Samples;Min_cycle;Max_cycle;Signal;HPM_P1;HPM_P2
2024/02/23 00:00:57;;;;;;;;;1.00;1.00;;;;;14.92;100.00;96870.75;6041569;28;96415;-58
2024/02/23 00:04:02;;;;;;;;;1.00;1.00;;;;;14.61;100.00;96819.75;6045398;28;96397;-57
2024/02/23 00:07:05;;;;;;;;;2.40;2.40;;;;;14.99;100.00;96869.28;6028871;28;97043;-57
2024/02/23 00:10:10;;;;;;;;;2.00;2.00;;;;;14.91;100.00;96859.09;6045671;28;96392;-57
2024/02/23 00:13:13;;;;;;;;;2.00;2.00;;;;;14.91;100.00;96859.09;6045083;28;96470;-57
2024/02/23 00:16:17;;;;;;;;;1.60;1.00;;;;;14.92;100.00;96858.00;6045487;28;96426;-57
2024/02/23 00:19:21;;;;;;;;;2.00;1.75;;;;;14.93;100.00;96866.94;6044561;28;96457;-57
2024/02/23 00:22:25;;;;;;;;;2.00;1.60;;;;;14.99;100.00;96871.19;6027827;28;96981;-57
2024/02/23 00:25:30;;;;;;;;;2.00;2.00;;;;;15.03;100.00;96873.00;6045339;28;96326;-57
2024/02/23 00:28:33;;;;;;;;;4.40;4.00;;;;;15.04;100.00;96866.47;6047623;28;96303;-53
2024/02/23 00:31:38;;;;;;;;;2.00;2.00;;;;;15.00;100.00;96864.66;6046871;28;96505;-53
2024/02/23 00:34:41;;;;;;;;;2.00;2.00;;;;;14.99;100.00;96853.00;6047176;28;96314;-53
2024/02/23 00:37:45;;;;;;;;;3.25;3.00;;;;;14.97;100.00;96855.19;6047787;28;96411;-53
2024/02/23 00:40:49;;;;;;;;;2.00;2.00;;;;;15.01;100.00;96863.53;6046709;28;96358;-54
2024/02/23 00:43:52;;;;;;;;;2.00;2.00;;;;;15.01;100.00;96861.63;6047389;28;96405;-53
2024/02/23 00:46:57;;;;;;;;;3.75;2.00;;;;;15.00;100.00;96867.38;6047694;28;96783;-53
2024/02/23 00:50:00;;;;;;;;;2.80;2.00;;;;;14.88;100.00;96865.13;6033553;28;96595;-53
2024/02/23 00:53:04;;;;;;;;;2.40;2.00;;;;;15.01;100.00;96866.25;6047139;28;96276;-53
2024/02/23 00:56:09;;;;;;;;;3.00;3.00;;;;;15.06;100.00;96864.25;6030181;28;96377;-53
2024/02/23 00:59:13;;;;;;;;;3.00;3.00;;;;;15.06;100.00;96858.03;6046088;28;96379;-53
2024/02/23 01:02:16;;;;;;;;;2.00;2.00;;;;;15.01;100.00;96853.50;6070121;28;96346;-60
2024/02/23 01:05:19;;;;;;;;;2.00;2.00;;;;;15.04;100.00;96850.19;6071218;28;96349;-58
2024/02/23 01:08:22;;;;;;;;;2.00;2.00;;;;;14.89;100.00;96860.53;6070877;28;96409;-58
2024/02/23 01:11:27;;;;;;;;;2.00;2.00;;;;;14.81;100.00;96842.22;6071056;28;96351;-60
2024/02/23 01:14:30;;;;;;;;;3.00;3.00;;;;;14.80;100.00;96851.47;6071881;28;96348;-59
2024/02/23 01:17:33;;;;;;;;;3.00;3.00;;;;;14.75;100.00;96849.63;6071647;28;96361;-59
2024/02/23 01:20:37;;;;;;;;;2.40;2.00;;;;;14.69;100.00;96864.38;6070891;28;96353;-57
2024/02/23 01:23:40;;;;;;;;;4.00;4.00;;;;;14.45;100.00;96853.66;6071237;28;96904;-59
2024/02/23 01:26:44;;;;;;;;;5.00;4.00;;;;;14.44;100.00;96849.34;6055591;28;96352;-60
2024/02/23 01:29:47;;;;;;;;;3.00;3.00;;;;;14.34;100.00;96857.59;6071464;28;96808;-59
2024/02/23 01:32:50;;;;;;;;;6.00;6.00;;;;;14.27;100.00;96857.97;6071592;28;96389;-58
2024/02/23 01:35:54;;;;;;;;;3.00;3.00;;;;;14.31;100.00;96836.50;6072345;28;96251;-59
2024/02/23 01:38:57;;;;;;;;;3.60;2.40;;;;;14.28;100.00;96845.22;6055985;28;96415;-52
2024/02/23 01:42:01;;;;;;;;;4.80;4.80;;;;;14.25;100.00;96837.69;6045958;28;96336;-53
2024/02/23 01:45:06;;;;;;;;;4.00;3.00;;;;;14.31;100.00;96833.81;6045535;28;96491;-55
2024/02/23 01:48:09;;;;;;;;;4.00;4.00;;;;;14.22;100.00;96822.03;6045298;28;96424;-54
2024/02/23 01:51:13;;;;;;;;;4.00;4.00;;;;;14.21;100.00;96831.25;6045333;28;97073;-53
2024/02/23 01:54:17;;;;;;;;;3.80;3.00;;;;;14.27;100.00;96830.03;6045884;28;96643;-53
2024/02/23 01:57:22;;;;;;;;;2.40;2.00;;;;;14.17;100.00;96825.59;6045518;28;96524;-53
2024/02/23 02:00:46;;;;;;;;;4.00;4.00;;;;;14.14;100.00;96828.09;6044947;28;96382;-52
2024/02/23 02:03:49;;;;;;;;;3.00;3.00;;;;;14.10;100.00;96837.91;6037742;23;98780;-54
2024/02/23 02:06:52;;;;;;;;;3.00;3.00;;;;;14.08;100.00;96832.78;6024341;29;96338;-55
2024/02/23 02:09:55;;;;;;;;;4.00;4.00;;;;;14.00;100.00;96833.44;6011000;29;96424;-55
2024/02/23 02:13:05;;;;;;;;;4.00;4.00;;;;;13.97;100.00;96828.63;6001137;29;96340;-54
2024/02/23 02:16:09;;;;;;;;;3.00;3.00;;;;;13.91;100.00;96820.88;6001362;29;96530;-54
2024/02/23 02:19:12;;;;;;;;;3.00;3.00;;;;;13.99;100.00;96823.72;6000698;29;96997;-54
2024/02/23 02:22:16;;;;;;;;;3.00;3.00;;;;;13.96;100.00;96824.31;6000881;29;96808;-54
2024/02/23 02:25:19;;;;;;;;;4.00;3.00;;;;;13.97;100.00;96812.38;5984890;29;96233;-54
2024/02/23 02:28:25;;;;;;;;;2.00;2.00;;;;;13.98;100.00;96810.44;5988512;29;96735;-54
2024/02/23 02:31:28;;;;;;;;;3.00;3.00;;;;;13.95;100.00;96821.88;6017130;29;96358;-54
2024/02/23 02:34:31;;;;;;;;;4.00;3.20;;;;;14.05;100.00;96830.66;6023806;29;96435;-54
2024/02/23 02:37:36;;;;;;;;;4.00;4.00;;;;;13.99;100.00;96828.31;6024108;29;96953;-54
2024/02/23 02:40:39;;;;;;;;;3.00;3.00;;;;;14.07;100.00;96827.69;6023421;29;96398;-54
2024/02/23 02:43:43;;;;;;;;;5.00;5.00;;;;;14.05;100.00;96838.78;6023961;29;96503;-52
2024/02/23 02:46:47;;;;;;;;;3.00;3.00;;;;;14.15;100.00;96835.94;6022929;29;96334;-52
2024/02/23 02:49:51;;;;;;;;;6.00;6.00;;;;;14.09;100.00;96831.69;6023030;29;97623;-52
2024/02/23 02:52:54;;;;;;;;;3.00;3.00;;;;;14.13;100.00;96838.13;6023530;29;96462;-53
2024/02/23 02:55:57;;;;;;;;;3.80;3.80;;;;;14.19;100.00;96844.28;6023285;29;97602;-52
2024/02/23 02:59:02;;;;;;;;;3.00;3.00;;;;;14.21;100.00;96844.81;6023905;29;96482;-53
2024/02/23 03:02:05;;;;;;;;;6.00;6.00;;;;;14.06;100.00;96848.53;6011813;29;96408;-54
2024/02/23 03:05:09;;;;;;;;;5.00;5.00;;;;;14.14;100.00;96833.50;6023714;29;96507;-54
2024/02/23 03:08:12;;;;;;;;;6.00;5.00;;;;;14.13;100.00;96830.00;6025815;29;96972;-53
2024/02/23 03:11:15;;;;;;;;;6.00;6.00;;;;;14.01;100.00;96815.28;6027123;29;96288;-53
2024/02/23 03:14:20;;;;;;;;;4.00;4.00;;;;;14.15;100.00;96833.22;6027309;29;96354;-53
2024/02/23 03:17:24;;;;;;;;;4.75;4.00;;;;;14.17;100.00;96827.53;6027787;29;96306;-54
2024/02/23 03:20:27;;;;;;;;;5.00;5.00;;;;;14.24;100.00;96820.63;6038121;28;96316;-57
2024/02/23 03:23:30;;;;;;;;;5.00;5.00;;;;;14.21;100.00;96832.06;6038430;29;97415;-57
2024/02/23 03:26:33;;;;;;;;;4.00;4.00;;;;;14.20;100.00;96813.38;6039950;29;96310;-57
2024/02/23 03:29:39;;;;;;;;;4.75;4.75;;;;;14.17;100.00;96817.47;6040364;29;96327;-56
2024/02/23 03:32:42;;;;;;;;;5.00;4.60;;;;;14.18;100.00;96810.13;6018724;28;100624;-56
2024/02/23 03:35:45;;;;;;;;;5.00;5.00;;;;;14.19;100.00;96828.00;6064326;28;96487;-57
2024/02/23 03:38:48;;;;;;;;;5.00;5.00;;;;;14.24;100.00;96825.22;6040634;29;96363;-57
2024/02/23 03:41:52;;;;;;;;;3.00;3.00;;;;;14.24;100.00;96833.34;6040089;28;97625;-56
2024/02/23 03:44:56;;;;;;;;;5.20;5.00;;;;;14.22;100.00;96833.66;6023556;29;98371;-56
2024/02/23 03:47:59;;;;;;;;;4.00;4.00;;;;;14.23;100.00;96837.16;6034749;29;99700;-56
2024/02/23 03:51:04;;;;;;;;;5.00;5.00;;;;;14.24;100.00;96841.50;6040213;29;96353;-56
2024/02/23 03:54:07;;;;;;;;;4.75;4.25;;;;;14.23;100.00;96846.09;6039770;29;96334;-57
2024/02/23 03:57:11;;;;;;;;;5.00;4.80;;;;;14.35;100.00;96844.84;6059535;28;96754;-57
2024/02/23 04:00:16;;;;;;;;;4.60;4.40;;;;;14.37;100.00;96842.69;6057521;28;96288;-56
2024/02/23 04:03:19;;;;;;;;;6.00;5.60;;;;;14.43;100.00;96850.44;6049094;28;96398;-57
2024/02/23 04:06:22;;;;;;;;;6.00;4.00;;;;;14.33;100.00;96858.69;6037597;29;96378;-56
2024/02/23 04:09:25;;;;;;;;;5.25;5.00;;;;;14.41;100.00;96865.41;6016489;28;96343;-57
2024/02/23 04:12:30;;;;;;;;;4.80;4.40;;;;;14.48;100.00;96872.03;6037348;29;96878;-56
2024/02/23 04:15:35;;;;;;;;;4.75;4.00;;;;;14.53;100.00;96871.16;6024457;29;96749;-56
2024/02/23 04:18:38;;;;;;;;;5.00;4.00;;;;;14.62;100.00;96874.78;6039038;28;96299;-56
2024/02/23 04:21:42;;;;;;;;;5.00;5.00;;;;;14.59;100.00;96875.41;6022371;29;96994;-56
2024/02/23 04:24:45;;;;;;;;;4.00;4.00;;;;;14.60;100.00;96875.09;6037674;28;96404;-57
2024/02/23 04:27:48;;;;;;;;;4.00;4.00;;;;;14.65;100.00;96874.22;6040326;28;96352;-57
2024/02/23 04:30:52;;;;;;;;;4.00;4.00;;;;;14.56;100.00;96876.00;6023614;28;96561;-56
2024/02/23 04:33:56;;;;;;;;;3.00;3.00;;;;;14.64;100.00;96880.75;6020901;28;96343;-56
2024/02/23 04:36:59;;;;;;;;;4.00;3.40;;;;;14.59;100.00;96895.19;6023330;28;97643;-56
2024/02/23 04:40:04;;;;;;;;;4.25;4.00;;;;;14.42;100.00;96865.06;6000563;29;99717;-56
2024/02/23 04:43:07;;;;;;;;;4.20;4.00;;;;;14.60;100.00;96893.28;6019564;29;96475;-56
2024/02/23 04:46:12;;;;;;;;;3.00;3.00;;;;;14.60;100.00;96894.09;6020486;29;96552;-56
2024/02/23 04:49:15;;;;;;;;;3.00;3.00;;;;;14.60;100.00;96893.28;6019456;29;96578;-56
2024/02/23 04:52:18;;;;;;;;;4.40;4.40;;;;;14.57;100.00;96893.84;6021741;28;96416;-56
2024/02/23 04:55:21;;;;;;;;;4.00;4.00;;;;;14.61;100.00;96894.91;6023733;28;96995;-56
2024/02/23 04:58:25;;;;;;;;;5.00;4.00;;;;;14.59;100.00;96897.09;6011557;28;96890;-56
2024/02/23 05:01:29;;;;;;;;;3.00;3.00;;;;;14.58;100.00;96892.75;6026861;28;96295;-57
2024/02/23 05:04:33;;;;;;;;;4.00;4.00;;;;;14.63;100.00;96907.03;6001694;29;96882;-56
2024/02/23 05:07:36;;;;;;;;;4.00;4.00;;;;;14.66;100.00;96905.66;6019396;28;96369;-56
2024/02/23 05:10:39;;;;;;;;;3.00;3.00;;;;;14.69;100.00;96911.28;6018856;29;96873;-56
2024/02/23 05:13:43;;;;;;;;;2.75;2.00;;;;;14.71;100.00;96913.69;6012135;28;97970;-56
2024/02/23 05:16:47;;;;;;;;;3.00;3.00;;;;;14.72;100.00;96915.31;6020308;29;96679;-56
2024/02/23 05:19:51;;;;;;;;;3.00;3.00;;;;;14.73;100.00;96919.63;6020639;29;96451;-56
2024/02/23 05:22:54;;;;;;;;;3.00;3.00;;;;;14.73;100.00;96927.78;6019417;29;96397;-56
2024/02/23 05:25:57;;;;;;;;;2.60;2.60;;;;;14.72;100.00;96926.97;6020696;29;96416;-56
2024/02/23 05:29:00;;;;;;;;;3.60;3.60;;;;;14.72;100.00;96932.38;6020042;29;97045;-56
2024/02/23 05:32:05;;;;;;;;;2.00;2.00;;;;;14.74;100.00;96937.53;6019984;29;96429;-56
2024/02/23 05:35:08;;;;;;;;;3.00;3.00;;;;;14.71;100.00;96936.19;6020808;29;96958;-56
2024/02/23 05:38:12;;;;;;;;;4.00;4.00;;;;;14.75;100.00;96944.56;6018057;29;97494;-55
2024/02/23 05:41:15;;;;;;;;;3.00;3.00;;;;;14.75;100.00;96958.13;6004437;29;96505;-55
2024/02/23 05:44:19;;;;;;;;;4.00;4.00;;;;;14.65;100.00;96948.25;6018396;29;96411;-55
2024/02/23 05:47:23;;;;;;;;;3.00;3.00;;;;;14.71;100.00;96960.59;6001891;29;96607;-55
2024/02/23 05:50:26;;;;;;;;;3.00;3.00;;;;;14.69;100.00;96967.44;6017995;29;96448;-55
2024/02/23 05:53:32;;;;;;;;;5.00;4.00;;;;;14.67;100.00;96972.34;6018341;29;96419;-55
2024/02/23 05:56:37;;;;;;;;;3.00;3.00;;;;;14.65;100.00;96980.78;6018835;29;97058;-55
2024/02/23 05:59:40;;;;;;;;;4.00;3.00;;;;;14.65;100.00;96983.50;6003563;29;96600;-55
2024/02/23 06:02:44;;;;;;;;;3.20;3.20;;;;;14.61;100.00;96990.59;6019310;29;96430;-55
2024/02/23 06:05:47;;;;;;;;;4.40;4.00;;;;;14.60;100.00;97002.56;6002776;29;96341;-55
2024/02/23 06:08:51;;;;;;;;;4.50;4.50;;;;;14.57;100.00;96989.56;6019775;29;96507;-55
2024/02/23 06:11:54;;;;;;;;;4.40;4.00;;;;;14.57;100.00;97002.31;6019616;29;96797;-55
2024/02/23 06:14:58;;;;;;;;;6.00;6.00;;;;;14.45;100.00;96988.41;6019647;29;97049;-55
2024/02/23 06:18:02;;;;;;;;;3.00;3.00;;;;;14.50;100.00;97004.59;6003254;29;98554;-55
2024/02/23 06:21:12;;;;;;;;;6.00;6.00;;;;;14.48;100.00;97009.50;6019662;29;96538;-55
2024/02/23 06:24:16;;;;;;;;;3.00;3.00;;;;;14.45;100.00;97010.91;6019781;29;96360;-55
2024/02/23 06:27:21;;;;;;;;;4.00;3.75;;;;;14.44;100.00;97020.13;6019454;29;96452;-55
2024/02/23 06:30:25;;;;;;;;;7.00;6.00;;;;;14.41;100.00;97026.16;6018538;29;96618;-55
2024/02/23 06:33:29;;;;;;;;;6.00;5.00;;;;;14.41;100.00;97023.44;6019058;29;96418;-55
2024/02/23 06:36:32;;;;;;;;;4.60;4.60;;;;;14.42;100.00;97026.91;6005146;29;96530;-55
2024/02/23 06:39:35;;;;;;;;;7.00;6.50;;;;;14.44;100.00;97035.59;6022053;29;96791;-55
2024/02/23 06:42:39;;;;;;;;;6.00;6.00;;;;;14.45;100.00;97038.00;6023089;29;96395;-55
2024/02/23 06:45:42;;;;;;;;;6.00;6.00;;;;;14.52;100.00;97043.88;6020867;28;96339;-55
2024/02/23 06:48:47;;;;;;;;;6.00;5.00;;;;;14.56;100.00;97038.69;6027894;29;96921;-57
2024/02/23 06:51:50;;;;;;;;;7.00;7.00;;;;;14.61;100.00;97052.19;6036120;29;96328;-57
2024/02/23 06:54:53;;;;;;;;;6.75;5.75;;;;;14.69;100.00;97051.50;6039719;28;96571;-56
2024/02/23 06:57:56;;;;;;;;;6.25;6.00;;;;;14.73;100.00;97052.53;6034975;29;96406;-57
2024/02/23 07:01:00;;;;;;;;;8.50;8.00;;;;;14.77;100.00;97055.47;6034879;29;96341;-57
2024/02/23 07:04:04;;;;;;;;;7.60;7.00;;;;;14.86;100.00;97069.97;6032000;28;96190;-57
2024/02/23 07:07:08;;;;;;;;;9.00;9.00;;;;;14.88;100.00;97059.66;6035984;29;96365;-57
2024/02/23 07:10:12;;;;;;;;;7.00;6.00;;;;;14.95;100.00;97068.25;6018451;29;96180;-57
2024/02/23 07:13:15;;;;;;;;;7.00;7.00;;;;;14.98;100.00;97071.16;6033837;29;96656;-57
2024/02/23 07:16:18;;;;;;;;;6.50;6.50;;;;;15.01;100.00;97072.47;6035211;29;96303;-57
2024/02/23 07:19:22;;;;;;;;;7.00;6.00;;;;;15.06;100.00;97075.13;6034524;29;96281;-57
2024/02/23 07:22:26;;;;;;;;;7.00;6.40;;;;;15.11;100.00;97077.75;6035596;29;96300;-57
2024/02/23 07:25:29;;;;;;;;;8.00;8.00;;;;;15.06;100.00;97072.41;6018195;29;96326;-57
2024/02/23 07:28:33;;;;;;;;;6.00;5.00;;;;;15.18;100.00;97089.06;6035906;29;96405;-57
2024/02/23 07:31:36;;;;;;;;;6.00;6.00;;;;;15.21;100.00;97091.16;6035357;29;96236;-57
2024/02/23 07:34:40;;;;;;;;;6.60;6.00;;;;;15.15;100.00;97095.06;6034846;29;96423;-56
2024/02/23 07:37:44;;;;;;;;;6.00;5.00;;;;;15.15;100.00;97105.91;6032726;29;96345;-56
2024/02/23 07:40:47;;;;;;;;;5.00;5.00;;;;;15.12;100.00;97115.47;6013276;29;96352;-57
2024/02/23 07:43:50;;;;;;;;;5.60;5.00;;;;;15.09;100.00;97110.63;6029665;29;96469;-57
2024/02/23 07:46:55;;;;;;;;;5.00;4.20;;;;;15.11;100.00;97113.03;6016865;29;96388;-57
2024/02/23 07:49:59;;;;;;;;;7.00;6.20;;;;;15.10;100.00;97125.00;6035147;29;96440;-57
2024/02/23 07:53:04;;;;;;;;;6.00;5.00;;;;;15.10;100.00;97130.44;6034768;29;96725;-57
2024/02/23 07:56:09;;;;;;;;;6.00;5.00;;;;;14.99;100.00;97118.91;6016068;29;96159;-56
2024/02/23 07:59:12;;;;;;;;;8.00;7.00;;;;;15.10;100.00;97133.16;6028152;29;96245;-55
2024/02/23 08:02:16;;;;;;;;;7.00;6.00;;;;;15.12;100.00;97145.31;6022035;29;96780;-55
2024/02/23 08:05:20;;;;;;;;;6.00;6.00;;;;;15.01;100.00;97135.69;6011427;29;96817;-55
2024/02/23 08:08:25;;;;;;;;;7.20;7.20;;;;;14.98;100.00;97138.19;6013650;29;96450;-55
2024/02/23 08:11:29;;;;;;;;;9.33;8.33;;;;;15.08;100.00;97148.91;5991684;29;96647;-55
2024/02/23 08:14:33;;;;;;;;;5.40;5.00;;;;;15.05;100.00;97155.72;6016285;28;96701;-55
2024/02/23 08:17:37;;;;;;;;;9.00;8.60;;;;;14.95;100.00;97142.31;6021549;29;96840;-55
2024/02/23 08:20:42;;;;;;;;;9.40;9.00;;;;;15.07;100.00;97156.25;6004347;29;96798;-56
2024/02/23 08:23:45;;;;;;;;;9.00;9.00;;;;;15.09;100.00;97161.38;6003401;29;96315;-55
2024/02/23 08:26:48;;;;;;;;;9.67;8.67;;;;;15.08;100.00;97171.44;6015872;29;97935;-55
2024/02/23 08:29:51;;;;;;;;;10.00;8.00;;;;;15.05;100.00;97166.56;6021662;29;96415;-55
2024/02/23 08:32:54;;;;;;;;;9.20;9.20;;;;;14.98;100.00;97168.84;6021084;29;96303;-55
2024/02/23 08:35:59;;;;;;;;;11.75;9.00;;;;;14.99;100.00;97166.94;6020992;29;96393;-55
2024/02/23 08:39:02;;;;;;;;;11.40;9.00;;;;;14.91;100.00;97165.69;5997463;29;96403;-55
2024/02/23 08:42:06;;;;;;;;;12.00;10.00;;;;;14.78;100.00;97168.28;6015327;29;96562;-55
2024/02/23 08:45:12;;;;;;;;;10.40;9.00;;;;;14.72;100.00;97168.34;6018004;28;98375;-55
2024/02/23 08:48:15;;;;;;;;;10.60;9.20;;;;;14.79;100.00;97173.44;6013339;28;97533;-55
2024/02/23 08:51:20;;;;;;;;;10.60;9.60;;;;;14.83;100.00;97179.09;6015116;29;96386;-55
2024/02/23 08:54:23;;;;;;;;;9.00;8.20;;;;;14.89;100.00;97180.66;6019772;29;96900;-55
2024/02/23 08:57:27;;;;;;;;;10.00;9.00;;;;;14.93;100.00;97177.06;6014685;28;96525;-55
2024/02/23 09:00:30;;;;;;;;;7.00;7.00;;;;;14.97;100.00;97185.41;6008323;28;97510;-55
2024/02/23 09:03:33;;;;;;;;;7.60;6.00;;;;;14.99;100.00;97189.47;6008010;28;96426;-55
2024/02/23 09:06:38;;;;;;;;;7.00;7.00;;;;;15.04;100.00;97196.72;5993527;29;98617;-55
2024/02/23 09:09:42;;;;;;;;;7.00;6.00;;;;;15.08;100.00;97195.06;6019676;29;96408;-56
2024/02/23 09:12:45;;;;;;;;;7.00;6.75;;;;;14.94;100.00;97175.16;6019583;29;96275;-56
2024/02/23 09:15:48;;;;;;;;;7.60;7.00;;;;;15.06;100.00;97195.34;6009498;29;96952;-56
2024/02/23 09:18:51;;;;;;;;;7.20;6.80;;;;;15.09;100.00;97207.53;5997615;29;98459;-56
2024/02/23 09:21:56;;;;;;;;;8.00;8.00;;;;;15.15;100.00;97211.75;6020863;29;96386;-56
2024/02/23 09:24:59;;;;;;;;;7.20;7.00;;;;;15.01;100.00;97175.59;6004925;29;96324;-56
2024/02/23 09:28:02;;;;;;;;;11.00;9.00;;;;;15.22;100.00;97197.84;6021446;29;97589;-56
2024/02/23 09:31:05;;;;;;;;;8.00;8.00;;;;;15.28;100.00;97204.81;6013213;29;97618;-56
2024/02/23 09:34:08;;;;;;;;;9.00;8.00;;;;;15.38;100.00;97218.25;6021404;29;96871;-56
2024/02/23 09:37:13;;;;;;;;;6.25;6.00;;;;;15.39;100.00;97220.69;6019609;29;96336;-56
2024/02/23 09:40:17;;;;;;;;;8.00;7.00;;;;;15.43;100.00;97238.00;6020993;29;96433;-57
2024/02/23 09:43:22;;;;;;;;;8.80;6.80;;;;;15.44;100.00;97238.81;6009733;29;97042;-58
2024/02/23 09:46:27;;;;;;;;;6.00;5.75;;;;;15.48;100.00;97240.66;6009739;29;96472;-57
2024/02/23 09:49:30;;;;;;;;;7.00;7.00;;;;;15.39;100.00;97230.75;6017260;29;96833;-57
2024/02/23 09:52:35;;;;;;;;;7.20;7.00;;;;;15.49;100.00;97261.25;6007930;29;96365;-57
2024/02/23 09:55:38;;;;;;;;;7.25;7.25;;;;;15.52;100.00;97268.06;6021100;29;96662;-57
2024/02/23 09:58:43;;;;;;;;;7.75;7.75;;;;;15.52;100.00;97278.94;6020586;29;96568;-57
2024/02/23 10:01:47;;;;;;;;;9.00;8.00;;;;;15.49;100.00;97272.13;6015120;29;96955;-57
2024/02/23 10:04:52;;;;;;;;;10.40;9.40;;;;;15.54;100.00;97276.75;6019862;29;96959;-57
2024/02/23 10:07:58;;;;;;;;;9.00;9.00;;;;;15.57;100.00;97274.25;6020876;29;96369;-57
2024/02/23 10:11:02;;;;;;;;;8.00;7.00;;;;;15.54;100.00;97271.31;6025008;28;97018;-57
2024/02/23 10:14:05;;;;;;;;;7.00;6.00;;;;;15.52;100.00;97274.31;6020508;29;96879;-57
2024/02/23 10:17:09;;;;;;;;;5.00;5.00;;;;;15.60;100.00;97279.06;6020297;29;96679;-57
2024/02/23 10:20:12;;;;;;;;;6.00;6.00;;;;;15.71;100.00;97276.22;6019605;29;96369;-57
2024/02/23 10:23:17;;;;;;;;;8.00;7.00;;;;;15.78;100.00;97279.38;6020141;29;96328;-57
2024/02/23 10:26:22;;;;;;;;;7.00;7.00;;;;;15.87;100.00;97274.91;6005249;29;96256;-57
2024/02/23 10:29:27;;;;;;;;;6.00;6.00;;;;;15.83;100.00;97252.91;6020402;28;96399;-57
2024/02/23 10:32:31;;;;;;;;;8.00;7.00;;;;;16.01;100.00;97270.34;6020210;28;96292;-58
2024/02/23 10:35:40;;;;;;;;;7.00;6.60;;;;;16.11;100.00;97272.09;6020212;28;96867;-58
2024/02/23 10:38:49;;;;;;;;;7.00;5.20;;;;;16.19;100.00;97280.38;6020835;29;97058;-57
2024/02/23 10:41:57;;;;;;;;;10.00;8.40;;;;;16.04;100.00;97259.66;5996451;29;96971;-58
2024/02/23 10:45:04;;;;;;;;;7.00;6.40;;;;;16.28;100.00;97273.13;5997147;29;97664;-57
2024/02/23 10:48:09;;;;;;;;;8.60;8.60;;;;;16.38;100.00;97278.41;5997499;29;96465;-57
2024/02/23 10:51:15;;;;;;;;;7.40;7.00;;;;;16.44;100.00;97271.78;6015168;29;96959;-57
2024/02/23 10:54:24;;;;;;;;;7.60;6.60;;;;;16.62;100.00;97269.31;6020950;29;96328;-57
2024/02/23 10:57:28;;;;;;;;;6.00;6.00;;;;;16.76;100.00;97270.19;6019759;29;96603;-56
2024/02/23 11:00:32;;;;;;;;;7.00;7.00;;;;;16.82;100.00;97282.56;6020007;29;96458;-56
2024/02/23 11:03:38;;;;;;;;;10.40;8.80;;;;;16.82;100.00;97279.84;6019708;29;96386;-56
2024/02/23 11:06:41;;;;;;;;;9.40;7.00;;;;;16.83;100.00;97278.72;6003566;29;97154;-56
2024/02/23 11:09:50;;;;;;;;;8.00;7.60;;;;;16.89;100.00;97278.34;6020415;29;96740;-56
2024/02/23 11:12:59;;;;;;;;;5.00;4.20;;;;;16.96;100.00;97294.25;6015709;28;97071;-56
2024/02/23 11:16:03;;;;;;;;;5.00;5.00;;;;;16.99;100.00;97290.16;6016025;28;96283;-56
2024/02/23 11:19:08;;;;;;;;;6.00;5.75;;;;;16.99;100.00;97292.88;6018136;28;96506;-57
2024/02/23 11:22:11;;;;;;;;;5.40;5.40;;;;;16.97;100.00;97298.59;6006051;28;96364;-57
2024/02/23 11:25:34;;;;;;;;;5.00;4.00;;;;;16.99;100.00;97295.59;6004539;29;96522;-57
2024/02/23 11:28:43;;;;;;;;;6.00;5.00;;;;;16.92;100.00;97295.16;6009603;29;96312;-57
2024/02/23 11:31:48;;;;;;;;;4.00;4.00;;;;;16.87;100.00;97301.50;6023955;29;96366;-57
2024/02/23 11:34:58;;;;;;;;;5.75;5.00;;;;;16.78;100.00;97301.41;6023324;29;96370;-57
2024/02/23 11:38:06;;;;;;;;;5.67;5.00;;;;;16.68;100.00;97293.44;6024506;29;96317;-57
2024/02/23 11:41:11;;;;;;;;;5.20;4.00;;;;;16.51;100.00;97284.19;6024044;29;97488;-57
2024/02/23 11:44:14;;;;;;;;;4.00;4.00;;;;;16.54;100.00;97300.72;6023818;29;96287;-57
2024/02/23 11:47:18;;;;;;;;;6.00;5.00;;;;;16.53;100.00;97298.28;6023852;29;96429;-57
2024/02/23 11:50:21;;;;;;;;;7.40;6.40;;;;;16.53;100.00;97299.09;6022970;29;96937;-57
2024/02/23 11:53:25;;;;;;;;;5.40;5.00;;;;;16.55;100.00;97296.91;6023825;29;96557;-57
2024/02/23 11:56:30;;;;;;;;;5.00;5.00;;;;;16.57;100.00;97293.84;6023011;29;96584;-57
2024/02/23 11:59:33;;;;;;;;;5.00;5.00;;;;;16.60;100.00;97302.28;6023220;29;96908;-57
2024/02/23 12:02:36;;;;;;;;;5.00;4.60;;;;;16.58;100.00;97307.22;6023041;29;96839;-57
2024/02/23 12:05:40;;;;;;;;;5.00;4.00;;;;;16.59;100.00;97316.19;6023037;29;96360;-57
2024/02/23 12:08:44;;;;;;;;;5.00;4.20;;;;;16.65;100.00;97323.16;6023138;29;96540;-57
2024/02/23 12:11:49;;;;;;;;;6.00;6.00;;;;;16.73;100.00;97317.81;6023436;29;96374;-57
2024/02/23 12:14:53;;;;;;;;;5.00;4.40;;;;;16.87;100.00;97331.44;6023066;29;96352;-57
2024/02/23 12:18:00;;;;;;;;;4.80;4.80;;;;;17.03;100.00;97319.19;6023567;29;97103;-57
2024/02/23 12:21:06;;;;;;;;;3.80;3.00;;;;;17.10;100.00;97322.34;6023218;29;96406;-57
2024/02/23 12:24:10;;;;;;;;;5.00;4.00;;;;;17.04;100.00;97331.69;6022326;29;96552;-57
2024/02/23 12:27:18;;;;;;;;;5.00;4.00;;;;;16.95;100.00;97325.34;6023140;29;96305;-57
2024/02/23 12:30:21;;;;;;;;;4.20;4.00;;;;;16.98;100.00;97342.97;6023674;29;96394;-57
2024/02/23 12:33:24;;;;;;;;;4.00;4.00;;;;;16.91;100.00;97328.97;6013369;28;96407;-57
2024/02/23 12:36:27;;;;;;;;;4.00;4.00;;;;;16.87;100.00;97329.53;6013871;29;96327;-57
2024/02/23 12:39:30;;;;;;;;;4.50;4.00;;;;;16.78;100.00;97311.47;5989669;29;96870;-57
2024/02/23 12:42:35;;;;;;;;;5.60;4.00;;;;;16.90;100.00;97341.75;6006031;29;96290;-57
2024/02/23 12:45:38;;;;;;;;;5.00;4.00;;;;;16.86;100.00;97343.44;6022558;29;96407;-57
2024/02/23 12:48:42;;;;;;;;;6.00;6.00;;;;;16.82;100.00;97345.97;6021970;29;96413;-57
2024/02/23 12:51:46;;;;;;;;;6.00;5.00;;;;;16.72;100.00;97348.84;6022244;29;96922;-57
2024/02/23 12:54:49;;;;;;;;;3.00;3.00;;;;;16.57;100.00;97349.06;6021526;29;96467;-57
2024/02/23 12:57:56;;;;;;;;;4.00;3.60;;;;;16.44;100.00;97323.47;6022652;29;96799;-56
2024/02/23 13:00:59;;;;;;;;;4.00;4.00;;;;;16.52;100.00;97326.63;6022060;29;96301;-56
2024/02/23 13:04:02;;;;;;;;;3.60;3.60;;;;;16.55;100.00;97332.28;5988853;29;97225;-57
2024/02/23 13:07:05;;;;;;;;;4.60;4.00;;;;;16.57;100.00;97351.00;6008337;29;97168;-57
2024/02/23 13:10:09;;;;;;;;;5.40;5.00;;;;;16.53;100.00;97364.38;6022363;29;96481;-57
2024/02/23 13:13:14;;;;;;;;;5.40;5.00;;;;;16.46;100.00;97362.06;6021725;29;96697;-57
2024/02/23 13:16:17;;;;;;;;;4.00;4.00;;;;;16.39;100.00;97355.38;6021727;29;96572;-57
2024/02/23 13:19:20;;;;;;;;;5.00;4.20;;;;;16.37;100.00;97350.22;6021895;29;96299;-57
2024/02/23 13:22:24;;;;;;;;;4.00;3.00;;;;;16.37;100.00;97350.22;6022094;29;96944;-57
2024/02/23 13:25:28;;;;;;;;;6.00;5.50;;;;;16.41;100.00;97355.91;6021525;29;96344;-57
2024/02/23 13:28:33;;;;;;;;;6.00;5.80;;;;;16.44;100.00;97347.94;6004273;29;96984;-56
2024/02/23 13:31:38;;;;;;;;;5.40;5.00;;;;;16.47;100.00;97357.41;6001053;28;97327;-57
2024/02/23 13:34:41;;;;;;;;;5.00;4.00;;;;;16.48;100.00;97364.47;6008966;28;97663;-57
2024/02/23 13:37:44;;;;;;;;;5.00;4.00;;;;;16.49;100.00;97368.81;5998803;29;96339;-56
2024/02/23 13:40:47;;;;;;;;;5.00;4.75;;;;;16.48;100.00;97378.06;5998137;29;96352;-56
2024/02/23 13:43:52;;;;;;;;;6.00;5.00;;;;;16.49;100.00;97382.41;6002612;29;96279;-56
2024/02/23 13:46:56;;;;;;;;;3.00;2.20;;;;;16.44;100.00;97380.59;6021481;29;96503;-56
2024/02/23 13:49:59;;;;;;;;;4.00;4.00;;;;;16.33;100.00;97372.88;6025134;29;96276;-57
2024/02/23 13:53:02;;;;;;;;;4.20;4.20;;;;;16.23;100.00;97364.84;6033493;29;96389;-57
2024/02/23 13:56:06;;;;;;;;;5.00;4.00;;;;;16.14;100.00;97366.63;6033703;29;96367;-57
2024/02/23 13:59:10;;;;;;;;;5.00;5.00;;;;;16.09;100.00;97377.56;6033581;28;96314;-57
2024/02/23 14:02:14;;;;;;;;;5.40;5.00;;;;;16.10;100.00;97379.19;6031971;28;96460;-57
2024/02/23 14:05:18;;;;;;;;;5.00;5.00;;;;;16.06;100.00;97389.84;6031855;28;96892;-58
2024/02/23 14:08:22;;;;;;;;;4.00;4.00;;;;;16.04;100.00;97389.31;6030165;29;96379;-57
2024/02/23 14:11:25;;;;;;;;;5.60;5.00;;;;;15.98;100.00;97390.50;6010537;29;96307;-57
2024/02/23 14:14:30;;;;;;;;;6.00;5.00;;;;;15.92;100.00;97394.41;6009983;29;96548;-57